Time;durP1;ratioP1;P1;durP2;ratioP2;P2;SDS_P1;SDS_P2;PMS_P1;PMS_P2;Temp;Humidity;BMP_temperature;BMP_pressure;BME280_temperature;BME280_humidity;BME280_pressure;Samples;Min_cycle;Max_cycle;Signal;HPM_P1;HPM_P2
2022/09/24 00:00:18;;;;;;;2.35;1.23;;;;;;;24.27;31.71;97102.41;5015247;28;20417;-34
2022/09/24 00:02:44;;;;;;;2.03;1.13;;;;;;;24.31;31.47;97102.19;5014892;28;20466;-34
2022/09/24 00:05:09;;;;;;;2.08;1.33;;;;;;;24.35;31.49;97094.38;5015154;28;20458;-35
2022/09/24 00:07:34;;;;;;;3.25;1.48;;;;;;;24.32;31.72;97098.16;5014983;28;20382;-34
2022/09/24 00:10:01;;;;;;;2.15;1.33;;;;;;;24.21;31.84;97089.78;5015111;28;20064;-34
2022/09/24 00:12:27;;;;;;;3.45;1.20;;;;;;;24.26;31.84;97089.06;5015126;28;20029;-35
2022/09/24 00:14:53;;;;;;;1.50;1.20;;;;;;;24.38;31.55;97087.81;5015019;28;20033;-35
2022/09/24 00:17:18;;;;;;;6.03;1.40;;;;;;;24.27;31.66;97085.03;5014855;28;20113;-35
2022/09/24 00:19:44;;;;;;;2.50;1.40;;;;;;;24.23;31.74;97088.03;5013217;28;20528;-36
2022/09/24 00:22:09;;;;;;;2.05;1.20;;;;;;;24.30;31.83;97086.81;5014302;28;20037;-34
2022/09/24 00:27:19;;;;;;;1.80;1.00;;;;;;;24.28;31.88;97075.47;5014751;28;20083;-34
2022/09/24 00:29:44;;;;;;;1.67;1.30;;;;;;;24.27;31.60;97060.84;5014494;28;20030;-34
2022/09/24 00:32:12;;;;;;;1.95;1.33;;;;;;;24.27;31.71;97058.06;5014513;28;20378;-35
2022/09/24 00:34:37;;;;;;;2.08;1.02;;;;;;;24.23;31.83;97054.06;5014625;28;20030;-35
2022/09/24 00:37:03;;;;;;;2.28;1.25;;;;;;;24.21;31.76;97039.91;5013702;28;20048;-34
2022/09/24 00:39:28;;;;;;;4.53;1.20;;;;;;;24.25;31.93;97045.97;5014421;28;20074;-34
2022/09/24 00:41:54;;;;;;;2.47;1.30;;;;;;;24.31;31.80;97049.50;5014573;28;20022;-34
2022/09/24 00:44:39;;;;;;;1.65;1.50;;;;;;;24.14;32.13;97037.63;5014343;28;20029;-34
2022/09/24 00:47:10;;;;;;;2.55;1.10;;;;;;;24.27;31.72;97038.66;5014484;28;20467;-34
2022/09/24 00:49:36;;;;;;;1.75;1.17;;;;;;;24.04;32.31;97034.34;5014300;28;20076;-34
2022/09/24 00:52:01;;;;;;;1.55;1.00;;;;;;;24.22;31.79;97035.88;5014261;28;20021;-35
2022/09/24 00:54:28;;;;;;;1.63;1.00;;;;;;;24.11;32.18;97036.59;5012812;28;20030;-35
2022/09/24 00:56:56;;;;;;;1.40;1.20;;;;;;;24.20;31.87;97035.63;5014295;28;20028;-34
2022/09/24 00:59:22;;;;;;;1.92;1.00;;;;;;;24.19;31.99;97032.09;5014103;28;20037;-34
2022/09/24 01:01:50;;;;;;;1.85;1.20;;;;;;;24.18;32.00;97032.59;5013965;28;20036;-34
2022/09/24 01:04:21;;;;;;;1.85;1.00;;;;;;;24.22;31.76;97033.91;5014203;28;20026;-35
2022/09/24 01:06:47;;;;;;;1.48;1.05;;;;;;;24.10;32.05;97026.03;5014040;28;20029;-35
2022/09/24 01:09:13;;;;;;;1.70;1.00;;;;;;;24.15;32.07;97028.03;5012798;28;20026;-35
2022/09/24 01:11:48;;;;;;;1.60;0.98;;;;;;;24.20;31.94;97027.31;5013954;28;20520;-34
2022/09/24 01:14:31;;;;;;;2.05;1.10;;;;;;;24.10;32.10;97023.28;5013850;28;20040;-34
2022/09/24 01:17:12;;;;;;;1.85;1.17;;;;;;;24.16;32.16;97021.25;5014046;28;20037;-34
2022/09/24 01:19:55;;;;;;;1.58;1.10;;;;;;;24.16;32.15;97015.72;5013642;28;20110;-35
2022/09/24 01:22:42;;;;;;;2.47;1.15;;;;;;;24.25;31.76;97012.72;5013895;28;20026;-34
2022/09/24 01:25:17;;;;;;;2.33;1.30;;;;;;;24.08;31.99;97020.25;5013775;28;20034;-34
2022/09/24 01:27:51;;;;;;;2.15;1.20;;;;;;;24.13;31.93;97016.72;5013526;28;20061;-34
2022/09/24 01:30:18;;;;;;;2.65;1.10;;;;;;;24.13;31.80;97027.78;5014008;28;20108;-35
2022/09/24 01:32:59;;;;;;;2.67;1.00;;;;;;;24.09;31.92;97016.22;5013852;28;20022;-34
2022/09/24 01:35:31;;;;;;;2.47;1.25;;;;;;;24.01;32.09;97018.72;5013648;28;20105;-34
2022/09/24 01:38:05;;;;;;;1.70;1.20;;;;;;;24.02;32.31;97022.25;5013581;28;20046;-34
2022/09/24 01:40:31;;;;;;;3.30;1.30;;;;;;;23.98;32.21;97023.22;5013567;28;20037;-34
2022/09/24 01:42:58;;;;;;;1.58;1.00;;;;;;;24.03;32.30;97010.66;5013396;28;20077;-34
2022/09/24 01:45:30;;;;;;;2.67;1.20;;;;;;;24.07;32.12;97015.97;5013633;28;20029;-34
2022/09/24 01:47:59;;;;;;;2.60;1.25;;;;;;;24.03;32.22;97018.97;5013826;28;20022;-34
2022/09/24 01:50:28;;;;;;;1.80;1.20;;;;;;;24.00;32.10;97009.63;5017353;28;20153;-34
2022/09/24 01:53:03;;;;;;;1.58;0.90;;;;;;;23.99;32.31;97008.13;5017442;28;20025;-34
2022/09/24 01:55:37;;;;;;;1.92;1.08;;;;;;;23.99;32.41;97010.91;5017437;28;20048;-34
2022/09/24 01:58:22;;;;;;;3.97;1.38;;;;;;;23.90;32.58;97005.59;5017557;28;20050;-34
2022/09/24 02:00:53;;;;;;;2.85;1.20;;;;;;;23.97;32.41;97007.13;5017396;28;20117;-34
2022/09/24 02:03:28;;;;;;;1.80;1.30;;;;;;;23.97;32.54;97002.34;5017380;28;20022;-34
2022/09/24 02:06:09;;;;;;;2.03;1.00;;;;;;;23.95;32.59;97002.09;5017451;28;20026;-34
2022/09/24 02:08:39;;;;;;;2.45;1.20;;;;;;;23.99;32.75;97008.13;5017260;28;20026;-34
2022/09/24 02:11:10;;;;;;;2.63;1.40;;;;;;;23.89;32.81;96997.78;5017144;28;20029;-34
2022/09/24 02:13:42;;;;;;;2.50;1.40;;;;;;;23.98;32.79;97003.84;5017851;28;20462;-34
2022/09/24 02:16:13;;;;;;;2.10;1.27;;;;;;;23.97;32.70;97010.66;5017134;28;20226;-34
2022/09/24 02:18:41;;;;;;;4.22;1.30;;;;;;;23.95;33.01;97012.41;5017344;28;20037;-34
2022/09/24 02:21:11;;;;;;;2.60;1.23;;;;;;;23.98;32.91;96998.31;5016989;28;20017;-34
2022/09/24 02:23:46;;;;;;;2.47;1.20;;;;;;;24.00;33.02;97006.88;5017089;28;20026;-34
2022/09/24 02:26:12;;;;;;;2.60;1.40;;;;;;;23.92;33.27;97002.34;5016863;28;20021;-34
2022/09/24 02:28:40;;;;;;;1.67;1.08;;;;;;;23.95;33.23;97007.63;5016844;28;20030;-34
2022/09/24 02:31:11;;;;;;;2.85;1.30;;;;;;;23.88;33.31;96997.03;5017023;28;20369;-34
2022/09/24 02:36:28;;;;;;;1.70;1.15;;;;;;;23.89;33.43;97001.31;5017119;28;20104;-34
2022/09/24 02:38:53;;;;;;;1.73;1.08;;;;;;;23.96;33.29;97006.38;5016917;28;20049;-34
2022/09/24 02:41:22;;;;;;;3.95;1.58;;;;;;;23.91;33.61;97006.38;5016473;28;20099;-34
2022/09/24 02:43:47;;;;;;;4.38;1.40;;;;;;;23.94;33.75;97000.59;5016645;28;20030;-34
2022/09/24 02:46:13;;;;;;;2.40;1.33;;;;;;;23.99;33.36;96999.81;5016681;28;20359;-34
2022/09/24 02:48:38;;;;;;;2.58;1.02;;;;;;;23.91;33.64;97001.56;5016438;28;20057;-34
2022/09/24 02:51:04;;;;;;;2.47;1.20;;;;;;;23.89;33.68;97000.56;5016422;28;20108;-34
2022/09/24 02:53:31;;;;;;;1.83;0.90;;;;;;;23.92;33.91;97002.34;5016397;28;20022;-35
2022/09/24 02:55:59;;;;;;;1.67;1.00;;;;;;;23.90;33.84;96991.00;5016595;28;20088;-34
2022/09/24 02:58:24;;;;;;;1.75;1.15;;;;;;;23.82;34.15;96990.75;5016291;28;20427;-34
2022/09/24 03:00:50;;;;;;;1.80;1.15;;;;;;;23.88;34.01;96985.94;5016124;28;20102;-34
2022/09/24 03:03:15;;;;;;;1.92;1.00;;;;;;;23.88;34.13;96993.50;5016376;28;20453;-34
2022/09/24 03:05:40;;;;;;;2.60;1.13;;;;;;;23.91;34.44;96986.97;5016401;28;20022;-35
2022/09/24 03:08:06;;;;;;;2.00;1.20;;;;;;;23.91;34.22;96987.72;5016176;28;20056;-34
2022/09/24 03:10:32;;;;;;;2.60;1.10;;;;;;;23.90;34.18;96988.97;5016066;28;20021;-34
2022/09/24 03:12:58;;;;;;;1.98;1.30;;;;;;;23.95;34.20;96993.78;5016061;28;20397;-34
2022/09/24 03:15:24;;;;;;;1.65;1.10;;;;;;;23.94;34.24;96992.28;5016019;28;20025;-34
2022/09/24 03:17:50;;;;;;;1.50;0.95;;;;;;;23.84;34.48;96990.25;5015965;28;20461;-34
2022/09/24 03:20:16;;;;;;;2.08;1.10;;;;;;;23.91;34.44;96989.75;5015970;28;20025;-34
2022/09/24 03:22:41;;;;;;;2.10;1.10;;;;;;;23.91;34.38;96990.50;5016290;28;20034;-34
2022/09/24 03:25:08;;;;;;;2.38;1.10;;;;;;;23.90;34.72;97002.84;5015802;28;20030;-34
2022/09/24 03:27:33;;;;;;;1.75;1.10;;;;;;;23.86;34.67;96994.00;5015679;28;20100;-34
2022/09/24 03:32:43;;;;;;;2.67;1.10;;;;;;;23.94;34.94;96997.81;5015655;28;20025;-34
2022/09/24 03:35:10;;;;;;;2.72;1.13;;;;;;;23.91;34.79;96998.81;5015473;28;20030;-35
2022/09/24 03:37:36;;;;;;;1.88;1.10;;;;;;;23.89;34.53;97004.09;5015571;28;20045;-34
2022/09/24 03:40:04;;;;;;;2.60;1.05;;;;;;;23.99;34.54;97002.59;5015495;28;20537;-34
2022/09/24 03:42:32;;;;;;;2.63;1.20;;;;;;;23.98;34.87;97003.13;5015540;28;20371;-34
2022/09/24 03:44:57;;;;;;;1.95;1.15;;;;;;;23.97;35.13;97010.66;5015450;28;20025;-35
2022/09/24 03:47:23;;;;;;;2.97;1.30;;;;;;;23.96;35.05;97014.69;5015416;28;20108;-34
2022/09/24 03:49:48;;;;;;;1.70;1.10;;;;;;;23.96;34.82;97003.63;5015629;28;20022;-34
2022/09/24 03:52:14;;;;;;;1.45;1.15;;;;;;;24.11;34.71;97002.63;5015527;28;20403;-34
2022/09/24 03:54:39;;;;;;;2.60;1.27;;;;;;;24.06;35.11;97006.88;5015132;28;20532;-35
2022/09/24 03:57:05;;;;;;;2.83;1.10;;;;;;;24.06;34.65;97008.91;5015232;28;20378;-34
2022/09/24 03:59:31;;;;;;;1.88;1.02;;;;;;;23.98;35.09;97001.06;5015203;28;20032;-34
2022/09/24 04:01:56;;;;;;;1.30;0.90;;;;;;;23.97;35.17;96999.59;5015107;28;20029;-34
2022/09/24 04:04:22;;;;;;;2.85;1.20;;;;;;;24.05;35.14;97004.63;5015041;28;20026;-34
2022/09/24 04:06:48;;;;;;;3.63;1.23;;;;;;;23.99;35.02;97005.34;5015248;28;20026;-34
2022/09/24 04:09:14;;;;;;;1.73;1.08;;;;;;;23.88;35.40;96997.03;5014889;28;20455;-34
2022/09/24 04:11:39;;;;;;;2.25;1.10;;;;;;;23.94;34.96;97006.13;5013979;28;20076;-34
2022/09/24 04:14:05;;;;;;;2.95;0.98;;;;;;;23.99;35.33;96999.81;5014949;28;20033;-34
2022/09/24 04:16:31;;;;;;;1.90;1.13;;;;;;;23.91;35.46;96998.81;5014757;28;20025;-34
2022/09/24 04:18:56;;;;;;;2.55;1.08;;;;;;;23.99;35.25;97002.59;5014655;28;20095;-34
2022/09/24 04:21:22;;;;;;;4.18;1.15;;;;;;;24.01;35.21;96993.78;5014628;28;20486;-35
2022/09/24 04:23:47;;;;;;;3.20;1.10;;;;;;;23.97;35.53;96993.28;5014902;28;20032;-35
2022/09/24 04:26:14;;;;;;;2.08;1.20;;;;;;;24.04;35.13;96998.31;5014835;28;20030;-34
2022/09/24 04:28:39;;;;;;;2.30;1.10;;;;;;;23.94;35.49;97000.59;5014723;28;20476;-34
2022/09/24 04:31:04;;;;;;;2.25;1.00;;;;;;;23.99;35.18;97008.13;5014521;28;20112;-34
2022/09/24 04:33:30;;;;;;;1.55;1.00;;;;;;;24.03;35.51;97007.88;5014527;28;20017;-34
2022/09/24 04:35:56;;;;;;;2.97;1.20;;;;;;;23.97;35.27;97005.13;5014373;28;20458;-32
2022/09/24 04:38:21;;;;;;;2.15;1.10;;;;;;;23.97;35.53;97007.13;5014362;28;20022;-34
2022/09/24 04:40:47;;;;;;;3.72;1.08;;;;;;;24.04;35.19;97003.84;5014368;28;20371;-34
2022/09/24 04:43:13;;;;;;;1.70;1.10;;;;;;;24.05;35.92;97010.16;5014280;28;20430;-34
2022/09/24 04:45:38;;;;;;;1.45;1.02;;;;;;;23.98;35.58;97006.63;5014759;28;20108;-35
2022/09/24 04:48:04;;;;;;;3.25;1.15;;;;;;;24.02;35.37;97008.38;5014309;28;20025;-35
2022/09/24 04:50:33;;;;;;;2.10;1.00;;;;;;;24.07;35.66;97013.19;5014310;28;20045;-34
2022/09/24 04:53:00;;;;;;;4.72;1.45;;;;;;;24.04;35.53;97009.41;5014229;28;20072;-34
2022/09/24 04:55:26;;;;;;;2.65;1.08;;;;;;;24.11;35.18;97008.16;5014393;28;20026;-34
2022/09/24 04:57:55;;;;;;;1.65;0.80;;;;;;;24.05;35.71;97010.16;5014133;28;20049;-34
2022/09/24 05:00:21;;;;;;;1.88;1.00;;;;;;;24.03;35.99;97015.44;5014153;28;20026;-34
2022/09/24 05:02:47;;;;;;;2.17;0.90;;;;;;;24.03;35.61;97007.13;5014134;28;20037;-34
2022/09/24 05:05:12;;;;;;;2.67;1.20;;;;;;;24.08;35.89;97009.91;5014163;28;20040;-34
2022/09/24 05:07:38;;;;;;;2.17;1.10;;;;;;;24.11;35.54;96999.84;5014137;28;20033;-34
2022/09/24 05:10:05;;;;;;;2.72;1.17;;;;;;;24.05;35.59;97010.16;5014098;28;20018;-34
2022/09/24 05:12:32;;;;;;;2.15;1.23;;;;;;;24.05;35.67;97001.84;5013996;28;20049;-34
2022/09/24 05:14:57;;;;;;;2.35;1.05;;;;;;;24.06;35.90;97000.59;5013961;28;20699;-34
2022/09/24 05:17:23;;;;;;;2.08;1.05;;;;;;;24.09;35.63;96999.59;5014072;28;20022;-34
2022/09/24 05:19:49;;;;;;;2.17;1.00;;;;;;;24.12;35.53;97012.41;5013879;28;20402;-35
2022/09/24 05:22:14;;;;;;;1.85;1.13;;;;;;;24.15;35.75;97022.50;5013685;28;20026;-34
2022/09/24 05:24:40;;;;;;;1.67;1.00;;;;;;;24.18;35.84;97018.72;5013780;28;20465;-34
2022/09/24 05:27:08;;;;;;;1.17;0.75;;;;;;;24.18;35.53;97007.66;5012506;28;20021;-34
2022/09/24 05:29:38;;;;;;;1.98;1.00;;;;;;;24.17;35.24;97015.22;5013563;28;20072;-34
2022/09/24 05:32:06;;;;;;;2.60;0.85;;;;;;;24.16;35.39;97010.16;5013941;28;20026;-34
2022/09/24 05:34:32;;;;;;;2.13;1.20;;;;;;;24.15;35.45;97020.50;5013954;28;20057;-34
2022/09/24 05:36:58;;;;;;;1.25;0.88;;;;;;;24.13;35.50;97020.22;5013597;28;20073;-34
2022/09/24 05:39:24;;;;;;;2.30;1.00;;;;;;;24.17;35.51;97025.53;5013414;28;20105;-34
2022/09/24 05:41:50;;;;;;;1.65;0.80;;;;;;;24.15;35.33;97016.97;5013558;28;20121;-34
2022/09/24 05:44:18;;;;;;;1.52;0.80;;;;;;;24.16;35.63;97021.25;5012444;28;20056;-34
2022/09/24 05:46:44;;;;;;;1.77;1.00;;;;;;;24.12;35.81;97026.28;5013580;28;20439;-34
2022/09/24 05:49:09;;;;;;;1.95;0.75;;;;;;;24.15;35.71;97025.28;5012304;28;20037;-34
2022/09/24 05:51:34;;;;;;;2.05;0.95;;;;;;;24.13;35.46;97036.09;5013834;28;20021;-34
2022/09/24 05:54:00;;;;;;;1.80;1.08;;;;;;;24.04;35.97;97033.59;5013429;28;20057;-34
2022/09/24 05:56:25;;;;;;;2.40;1.00;;;;;;;24.07;35.84;97015.97;5013697;28;20382;-34
2022/09/24 05:58:51;;;;;;;1.85;1.10;;;;;;;23.99;35.95;97019.22;5013727;28;20022;-34
2022/09/24 06:01:16;;;;;;;1.60;0.90;;;;;;;24.05;35.84;97018.47;5013338;28;20017;-34
2022/09/24 06:03:42;;;;;;;1.63;0.95;;;;;;;24.09;35.85;97016.97;5013414;28;20058;-34
2022/09/24 06:06:07;;;;;;;1.98;0.98;;;;;;;24.13;35.75;97011.16;5013290;28;20397;-34
2022/09/24 06:08:33;;;;;;;1.90;0.77;;;;;;;24.11;35.99;97013.69;5012537;28;20366;-34
2022/09/24 06:11:04;;;;;;;1.77;1.00;;;;;;;24.08;36.05;97009.16;5013424;28;20446;-34
2022/09/24 06:13:33;;;;;;;2.97;0.98;;;;;;;24.01;36.04;97010.41;5013417;28;20470;-34
2022/09/24 06:16:11;;;;;;;3.25;1.10;;;;;;;24.09;35.96;97007.91;5013180;28;20495;-34
2022/09/24 06:18:39;;;;;;;3.28;1.38;;;;;;;24.11;36.08;97002.63;5013206;28;20033;-34
2022/09/24 06:21:07;;;;;;;1.45;1.00;;;;;;;24.10;36.03;97001.09;5013353;28;20018;-34
2022/09/24 06:23:33;;;;;;;1.98;1.10;;;;;;;24.06;35.90;97011.69;5013199;28;20026;-34
2022/09/24 06:25:59;;;;;;;1.33;1.00;;;;;;;24.10;36.30;97006.66;5012086;28;20105;-34
2022/09/24 06:28:24;;;;;;;1.50;1.00;;;;;;;24.09;36.24;97010.69;5013089;28;20113;-34
2022/09/24 06:30:50;;;;;;;3.08;0.98;;;;;;;24.13;36.42;97017.47;5013150;28;20046;-34
2022/09/24 06:33:16;;;;;;;1.30;0.90;;;;;;;24.12;36.15;97009.66;5013179;28;20101;-34
2022/09/24 06:35:43;;;;;;;1.25;0.85;;;;;;;24.14;36.32;97007.13;5015169;28;20045;-34
2022/09/24 06:38:14;;;;;;;1.80;1.05;;;;;;;24.13;36.40;97006.38;5016618;28;20445;-34
2022/09/24 06:40:40;;;;;;;1.52;1.13;;;;;;;24.11;36.38;97005.38;5016730;28;20052;-34
2022/09/24 06:43:09;;;;;;;1.30;0.85;;;;;;;24.17;36.45;97009.66;5016534;28;20026;-34
2022/09/24 06:45:35;;;;;;;3.17;1.10;;;;;;;24.14;36.71;97009.91;5016629;28;20022;-34
2022/09/24 06:48:03;;;;;;;1.50;1.00;;;;;;;24.14;36.31;97009.91;5016403;28;20501;-34
2022/09/24 06:50:30;;;;;;;2.60;1.33;;;;;;;24.15;36.69;97011.41;5016720;28;20042;-35
2022/09/24 06:52:56;;;;;;;3.25;1.10;;;;;;;24.12;36.47;97012.41;5016441;28;20092;-34
2022/09/24 06:55:22;;;;;;;3.47;1.30;;;;;;;24.09;36.80;97016.22;5017130;28;20121;-34
2022/09/24 06:57:47;;;;;;;1.92;1.20;;;;;;;24.09;36.74;97021.75;5016389;28;20038;-35
2022/09/24 07:00:14;;;;;;;2.55;1.42;;;;;;;24.10;36.71;97024.03;5016596;28;20022;-34
2022/09/24 07:02:40;;;;;;;2.30;1.38;;;;;;;24.11;36.71;97027.56;5016201;28;20058;-34
2022/09/24 07:05:06;;;;;;;3.15;1.30;;;;;;;24.08;36.72;97025.78;5016295;28;20053;-35
2022/09/24 07:07:33;;;;;;;1.85;1.27;;;;;;;24.04;36.80;97033.59;5016137;28;20087;-34
2022/09/24 07:10:00;;;;;;;4.07;1.77;;;;;;;24.07;36.82;97038.13;5016028;28;20029;-35
2022/09/24 07:12:28;;;;;;;6.13;1.77;;;;;;;24.08;37.09;97037.63;5016210;28;20018;-34
2022/09/24 07:14:54;;;;;;;6.50;1.77;;;;;;;24.06;36.93;97037.38;5015929;28;20030;-34
2022/09/24 07:17:20;;;;;;;4.05;1.67;;;;;;;23.99;36.79;97041.38;5015985;28;20370;-34
2022/09/24 07:19:45;;;;;;;5.65;1.77;;;;;;;24.05;37.05;97044.16;5016157;28;20063;-34
2022/09/24 07:22:11;;;;;;;4.80;1.95;;;;;;;24.09;36.67;97038.38;5016001;28;20474;-34
2022/09/24 07:24:36;;;;;;;5.07;1.70;;;;;;;24.07;36.95;97052.75;5015819;28;20127;-34
2022/09/24 07:27:05;;;;;;;2.05;1.40;;;;;;;24.06;36.63;97048.44;5015964;28;20033;-34
2022/09/24 07:29:32;;;;;;;4.10;1.75;;;;;;;24.10;36.51;97048.22;5014774;28;20753;-34
2022/09/24 07:31:58;;;;;;;3.67;1.40;;;;;;;23.94;37.12;97044.16;5013878;28;20084;-35
2022/09/24 07:34:23;;;;;;;1.95;1.40;;;;;;;24.02;37.19;97038.88;5013990;28;20044;-35
2022/09/24 07:36:49;;;;;;;3.58;1.40;;;;;;;23.91;37.40;97042.38;5013849;28;20671;-34
2022/09/24 07:39:15;;;;;;;2.90;1.67;;;;;;;24.03;37.20;97043.16;5013925;28;20037;-34
2022/09/24 07:41:41;;;;;;;2.88;1.65;;;;;;;23.92;37.10;97047.41;5013394;28;20485;-35
2022/09/24 07:44:09;;;;;;;2.70;1.45;;;;;;;23.94;37.39;97038.59;5013888;28;20038;-34
2022/09/24 07:46:34;;;;;;;2.83;1.60;;;;;;;23.95;37.00;97040.88;5013766;28;20022;-34
2022/09/24 07:49:00;;;;;;;3.40;1.30;;;;;;;23.79;37.36;97029.75;5013925;28;20129;-34
2022/09/24 07:51:27;;;;;;;3.45;1.50;;;;;;;23.87;37.37;97045.38;5013458;28;20109;-34
2022/09/24 07:53:54;;;;;;;2.78;1.50;;;;;;;24.02;37.35;97044.41;5013441;28;20030;-34
2022/09/24 07:56:21;;;;;;;4.03;1.80;;;;;;;23.99;37.44;97038.59;5013488;28;20209;-34
2022/09/24 07:58:51;;;;;;;2.92;1.10;;;;;;;23.96;37.47;97045.16;5013519;28;20477;-36
2022/09/24 08:01:17;;;;;;;2.20;1.50;;;;;;;23.83;37.44;97047.66;5013258;28;20046;-34
2022/09/24 08:03:43;;;;;;;3.13;1.40;;;;;;;23.97;37.49;97048.69;5013305;28;20080;-34
2022/09/24 08:06:09;;;;;;;1.98;1.45;;;;;;;23.88;37.59;97049.66;5013050;28;20066;-34
2022/09/24 08:08:35;;;;;;;2.47;1.20;;;;;;;23.84;37.92;97045.66;5013370;28;20056;-34
2022/09/24 08:11:09;;;;;;;3.65;1.20;;;;;;;23.83;37.53;97044.88;5013107;28;20068;-34
2022/09/24 08:13:35;;;;;;;3.00;1.48;;;;;;;23.80;37.96;97050.66;5013293;28;20076;-37
2022/09/24 08:16:02;;;;;;;2.13;1.10;;;;;;;23.90;38.01;97049.16;5013141;28;20148;-27
2022/09/24 08:18:30;;;;;;;8.57;1.65;;;;;;;24.03;37.59;97045.91;5012692;28;20489;-29
2022/09/24 08:20:56;;;;;;;1.95;1.25;;;;;;;23.90;37.68;97044.38;5011057;28;20029;-28
2022/09/24 08:23:22;;;;;;;3.63;1.20;;;;;;;23.69;38.41;97040.31;5012835;28;20398;-28
2022/09/24 08:25:47;;;;;;;4.22;1.63;;;;;;;23.72;39.08;97042.09;5012686;28;20038;-28
2022/09/24 08:28:15;;;;;;;6.45;1.85;;;;;;;23.76;39.39;97039.06;5012576;28;20061;-27
2022/09/24 08:30:41;;;;;;;2.72;1.80;;;;;;;23.59;38.79;97034.25;5012443;28;20073;-27
2022/09/24 08:33:08;;;;;;;3.85;2.03;;;;;;;23.79;38.83;97043.59;5012158;28;20057;-27
2022/09/24 08:35:35;;;;;;;3.55;2.10;;;;;;;23.69;38.89;97032.00;5015818;28;20076;-27
2022/09/24 08:38:02;;;;;;;5.20;2.38;;;;;;;23.73;39.83;97035.28;5034138;28;20081;-28
2022/09/24 08:40:32;;;;;;;4.43;2.10;;;;;;;23.77;39.12;97035.03;5034399;28;20026;-29
2022/09/24 08:43:00;;;;;;;3.50;2.42;;;;;;;23.77;39.05;97035.03;5034024;28;20021;-28
2022/09/24 08:51:16;;;;;;;3.75;1.85;;;;;;;23.81;39.06;97041.84;5033988;28;20024;-27
2022/09/24 08:53:48;;;;;;;5.72;2.22;;;;;;;23.74;39.43;97036.78;5033963;28;20104;-28
2022/09/24 08:56:19;;;;;;;3.22;1.33;;;;;;;23.59;39.96;97047.34;5029788;28;20029;-27
2022/09/24 08:58:53;;;;;;;6.45;1.73;;;;;;;23.48;40.10;97036.94;5011868;28;20037;-28
2022/09/24 09:01:52;;;;;;;2.58;1.60;;;;;;;23.45;41.14;97034.41;5010846;28;20029;-26
2022/09/24 09:04:27;;;;;;;5.95;1.80;;;;;;;23.43;41.11;97032.13;5012123;28;20130;-27
2022/09/24 09:07:11;;;;;;;6.07;1.83;;;;;;;23.47;40.98;97027.13;5012217;28;20037;-27
2022/09/24 09:09:59;;;;;;;2.45;1.33;;;;;;;23.58;40.28;97034.75;5011732;28;20025;-28
2022/09/24 09:12:47;;;;;;;5.07;1.13;;;;;;;23.49;41.46;97037.72;5011928;28;20034;-28
2022/09/24 09:15:22;;;;;;;4.33;1.50;;;;;;;23.53;40.77;97027.16;5012115;28;20044;-28
2022/09/24 09:18:02;;;;;;;3.00;1.63;;;;;;;23.58;39.74;97021.66;5011994;28;20723;-27
2022/09/24 09:20:30;;;;;;;3.80;1.55;;;;;;;23.40;41.25;97030.34;5011704;28;20132;-28
2022/09/24 09:23:02;;;;;;;6.65;1.92;;;;;;;23.39;41.43;97028.84;5011693;28;20025;-27
2022/09/24 09:25:32;;;;;;;6.30;2.00;;;;;;;23.11;42.07;97030.75;5011938;28;20056;-27
2022/09/24 09:28:02;;;;;;;3.80;1.80;;;;;;;23.28;41.69;97018.47;5011947;28;20467;-29
2022/09/24 09:30:36;;;;;;;5.22;1.65;;;;;;;23.29;41.76;97022.78;5011886;28;20029;-27
2022/09/24 09:33:08;;;;;;;4.60;1.77;;;;;;;23.23;42.06;97027.53;5011414;28;20071;-27
2022/09/24 09:35:57;;;;;;;25.37;7.63;;;;;;;22.70;44.03;97035.75;5011745;28;20021;-27
2022/09/24 09:38:41;;;;;;;17.85;4.20;;;;;;;21.93;46.60;97031.81;5011396;28;20054;-28
2022/09/24 09:41:32;;;;;;;22.90;4.18;;;;;;;22.11;46.22;97039.06;5010439;28;20029;-27
2022/09/24 09:44:12;;;;;;;22.77;3.80;;;;;;;22.07;46.33;97021.94;5011350;28;20099;-28
2022/09/24 09:46:45;;;;;;;22.80;3.22;;;;;;;22.67;44.38;97001.53;5011783;28;20105;-27
2022/09/24 09:49:12;;;;;;;7.57;2.22;;;;;;;22.57;44.35;97028.63;5011851;28;20040;-27
2022/09/24 09:51:41;;;;;;;8.30;1.83;;;;;;;22.36;45.42;97010.63;5011578;28;20026;-27
2022/09/24 09:54:07;;;;;;;13.27;2.65;;;;;;;22.95;43.58;97004.50;5011607;28;20080;-28
2022/09/24 09:56:44;;;;;;;3.00;1.50;;;;;;;22.13;46.67;97017.97;5011191;28;20026;-28
2022/09/24 09:59:09;;;;;;;6.22;1.50;;;;;;;22.20;45.77;97022.31;5011528;28;20518;-29
2022/09/24 10:01:41;;;;;;;3.83;1.52;;;;;;;22.74;44.51;97028.00;5015107;28;20061;-27
2022/09/24 10:04:31;;;;;;;3.70;1.20;;;;;;;22.65;45.14;97012.31;5028420;28;20746;-27
2022/09/24 10:07:14;;;;;;;6.68;1.30;;;;;;;22.54;46.04;97003.97;5017166;28;20025;-27
2022/09/24 10:09:41;;;;;;;2.30;1.10;;;;;;;22.37;45.74;97030.75;5012977;28;20057;-28
2022/09/24 10:12:20;;;;;;;11.05;1.80;;;;;;;22.68;44.45;97005.81;5014838;28;20461;-27
2022/09/24 10:14:59;;;;;;;4.90;1.30;;;;;;;22.33;46.19;97011.59;5015237;28;20022;-27
2022/09/24 10:17:33;;;;;;;4.63;1.25;;;;;;;22.12;46.32;96999.13;5014833;28;20034;-27
2022/09/24 10:19:59;;;;;;;5.25;1.30;;;;;;;22.56;45.16;97005.00;5014907;28;20029;-28
2022/09/24 10:22:26;;;;;;;4.38;1.15;;;;;;;22.38;46.07;97004.59;5015025;28;20342;-27
2022/09/24 10:24:54;;;;;;;2.33;1.20;;;;;;;22.59;45.47;97019.84;5015120;28;20026;-27
2022/09/24 10:27:40;;;;;;;3.20;1.10;;;;;;;22.24;47.05;96986.94;5015015;28;20053;-28
2022/09/24 10:30:32;;;;;;;2.28;1.13;;;;;;;22.55;45.52;96991.66;5014798;28;20421;-30
2022/09/24 10:33:03;;;;;;;4.20;1.45;;;;;;;22.16;47.23;96983.06;5025211;28;20436;-28
2022/09/24 10:35:34;;;;;;;2.47;1.05;;;;;;;22.25;46.95;96974.63;5015186;28;20381;-29
2022/09/24 10:38:01;;;;;;;2.95;1.15;;;;;;;22.75;45.45;96983.22;5022600;28;20418;-27
2022/09/24 10:40:30;;;;;;;4.20;1.13;;;;;;;22.83;44.67;96980.81;5032667;28;20034;-28
2022/09/24 10:43:00;;;;;;;3.80;0.98;;;;;;;22.27;47.08;96991.44;5034345;28;20105;-30
2022/09/24 10:45:45;;;;;;;2.80;1.00;;;;;;;22.64;46.02;96971.34;5034305;28;20632;-28
2022/09/24 10:48:17;;;;;;;3.67;1.00;;;;;;;22.75;45.68;96976.97;5034292;28;20481;-28
2022/09/24 10:51:05;;;;;;;2.08;1.15;;;;;;;22.67;46.07;96968.38;5021734;28;20026;-28
2022/09/24 10:53:49;;;;;;;6.78;1.10;;;;;;;22.76;44.78;96968.19;5014577;28;20018;-27
2022/09/24 10:56:45;;;;;;;3.40;0.88;;;;;;;22.23;47.47;96968.84;5014176;28;20040;-28
2022/09/24 10:59:34;;;;;;;2.58;1.25;;;;;;;22.45;46.66;96966.22;5014562;28;20033;-28
2022/09/24 11:02:12;;;;;;;3.58;1.10;;;;;;;22.59;46.36;96953.50;5014485;28;20045;-28
2022/09/24 11:04:44;;;;;;;3.95;0.93;;;;;;;22.59;46.61;96953.50;5014425;28;20025;-27
2022/09/24 11:07:21;;;;;;;1.27;0.87;;;;;;;22.77;45.22;96944.06;5014414;28;20022;-27
2022/09/24 11:09:53;;;;;;;1.60;0.80;;;;;;;23.13;43.54;96942.44;5014041;28;20032;-27
2022/09/24 11:12:34;;;;;;;2.30;0.90;;;;;;;23.06;44.60;96929.09;5014376;28;20108;-28
2022/09/24 11:15:03;;;;;;;5.65;1.45;;;;;;;22.85;45.37;96920.22;5014006;28;20065;-28
2022/09/24 11:17:32;;;;;;;3.42;0.95;;;;;;;22.35;46.65;96951.09;5013932;28;20025;-27
2022/09/24 11:20:00;;;;;;;2.60;0.90;;;;;;;22.60;45.80;96965.31;5013693;28;20068;-28
2022/09/24 11:22:31;;;;;;;5.22;1.00;;;;;;;22.58;47.00;96913.28;5013403;28;20029;-27
2022/09/24 11:25:21;;;;;;;3.63;1.17;;;;;;;22.78;46.00;96898.56;5014143;28;20394;-28
2022/09/24 11:28:19;;;;;;;2.00;1.13;;;;;;;22.08;48.07;96922.00;5030754;28;20108;-28
2022/09/24 11:30:53;;;;;;;5.05;1.02;;;;;;;22.20;47.64;96922.84;5033602;28;20034;-28
2022/09/24 11:33:37;;;;;;;4.40;1.10;;;;;;;22.09;47.79;96928.28;5025471;28;20490;-27
2022/09/24 11:36:21;;;;;;;5.95;1.13;;;;;;;21.91;48.58;96912.03;5018468;28;20028;-28
2022/09/24 11:39:07;;;;;;;3.20;0.90;;;;;;;22.10;48.51;96930.56;5015683;28;20026;-28
2022/09/24 11:42:01;;;;;;;2.97;0.90;;;;;;;22.54;46.31;96924.56;5015617;28;20022;-28
2022/09/24 11:44:53;;;;;;;5.25;1.05;;;;;;;22.15;48.38;96907.72;5015301;28;20382;-27
2022/09/24 11:47:50;;;;;;;3.60;0.90;;;;;;;22.34;47.09;96908.13;5014388;28;20124;-28
2022/09/24 11:50:42;;;;;;;4.60;1.20;;;;;;;22.14;48.21;96910.97;5015849;28;20037;-27
2022/09/24 11:53:16;;;;;;;5.60;1.00;;;;;;;22.21;47.67;96889.19;5015240;28;20088;-28
2022/09/24 11:56:08;;;;;;;3.08;1.20;;;;;;;22.54;46.89;96885.88;5015389;28;20370;-28
2022/09/24 11:58:59;;;;;;;2.47;0.80;;;;;;;22.26;47.69;96893.22;5015324;28;20382;-28
2022/09/24 12:01:29;;;;;;;1.30;0.90;;;;;;;22.50;47.53;96877.03;5015056;28;20022;-27